sensor_id;sensor_type;location;lat;lon;timestamp;pressure;altitude;pressure_sealevel;temperature;humidity
44992;BME280;56865;51.618;7.406;2024-03-08T00:58:04;101057.84;;;9.62;100.00
44992;BME280;56865;51.618;7.406;2024-03-08T01:00:53;101055.72;;;9.50;100.00
44992;BME280;56865;51.618;7.406;2024-03-08T01:06:56;101055.09;;;9.11;100.00
44992;BME280;56865;51.618;7.406;2024-03-08T01:36:50;101006.03;;;9.14;100.00
44992;BME280;56865;51.618;7.406;2024-03-08T01:48:17;101004.25;;;9.34;100.00
44992;BME280;56865;51.618;7.406;2024-03-08T02:19:05;100974.69;;;8.71;100.00
44992;BME280;56865;51.618;7.406;2024-03-08T02:34:01;100956.81;;;8.68;100.00
44992;BME280;56865;51.618;7.406;2024-03-08T02:37:18;100944.84;;;8.66;100.00
44992;BME280;56865;51.618;7.406;2024-03-08T02:59:33;100932.78;;;8.83;100.00
44992;BME280;56865;51.618;7.406;2024-03-08T03:05:19;100931.97;;;8.61;100.00
44992;BME280;56865;51.618;7.406;2024-03-08T03:30:35;100907.50;;;8.63;100.00
44992;BME280;56865;51.618;7.406;2024-03-08T03:37:21;100905.19;;;8.92;100.00
44992;BME280;56865;51.618;7.406;2024-03-08T03:40:26;100899.16;;;8.67;100.00
44992;BME280;56865;51.618;7.406;2024-03-08T03:57:22;100892.25;;;8.63;100.00
44992;BME280;56865;51.618;7.406;2024-03-08T04:12:11;100876.31;;;8.46;100.00
44992;BME280;56865;51.618;7.406;2024-03-08T04:18:24;100868.53;;;8.20;100.00
44992;BME280;56865;51.618;7.406;2024-03-08T04:21:48;100867.78;;;8.02;100.00
44992;BME280;56865;51.618;7.406;2024-03-08T04:25:07;100858.34;;;7.78;100.00
44992;BME280;56865;51.618;7.406;2024-03-08T04:31:38;100855.75;;;7.76;100.00
44992;BME280;56865;51.618;7.406;2024-03-08T04:52:23;100852.53;;;8.23;100.00
44992;BME280;56865;51.618;7.406;2024-03-08T04:57:49;100842.38;;;8.23;100.00
44992;BME280;56865;51.618;7.406;2024-03-08T05:15:06;100846.28;;;8.80;100.00
44992;BME280;56865;51.618;7.406;2024-03-08T05:17:59;100840.69;;;8.44;100.00
44992;BME280;56865;51.618;7.406;2024-03-08T05:27:15;100841.13;;;8.34;100.00
44992;BME280;56865;51.618;7.406;2024-03-08T05:36:25;100841.00;;;8.10;100.00
44992;BME280;56865;51.618;7.406;2024-03-08T05:39:28;100832.53;;;8.30;100.00
44992;BME280;56865;51.618;7.406;2024-03-08T05:42:30;100837.91;;;8.38;100.00
44992;BME280;56865;51.618;7.406;2024-03-08T05:45:07;100837.81;;;8.14;100.00
44992;BME280;56865;51.618;7.406;2024-03-08T05:50:28;100833.06;;;8.44;100.00
44992;BME280;56865;51.618;7.406;2024-03-08T05:53:34;100830.59;;;8.46;100.00
44992;BME280;56865;51.618;7.406;2024-03-08T06:05:07;100832.34;;;8.70;100.00
44992;BME280;56865;51.618;7.406;2024-03-08T06:08:27;100824.91;;;8.52;100.00
44992;BME280;56865;51.618;7.406;2024-03-08T06:23:02;100821.16;;;8.43;100.00
44992;BME280;56865;51.618;7.406;2024-03-08T06:26:04;100828.88;;;8.24;100.00
44992;BME280;56865;51.618;7.406;2024-03-08T06:29:15;100826.47;;;8.48;100.00
44992;BME280;56865;51.618;7.406;2024-03-08T06:32:11;100819.75;;;8.50;100.00
44992;BME280;56865;51.618;7.406;2024-03-08T06:36:10;100823.22;;;8.52;100.00
44992;BME280;56865;51.618;7.406;2024-03-08T06:45:03;100823.59;;;8.40;100.00
44992;BME280;56865;51.618;7.406;2024-03-08T06:51:41;100823.91;;;8.93;100.00
44992;BME280;56865;51.618;7.406;2024-03-08T06:54:36;100823.16;;;8.96;100.00
44992;BME280;56865;51.618;7.406;2024-03-08T06:57:23;100824.09;;;8.75;100.00
44992;BME280;56865;51.618;7.406;2024-03-08T07:23:41;100816.53;;;8.77;100.00
44992;BME280;56865;51.618;7.406;2024-03-08T07:29:36;100818.09;;;8.73;100.00
44992;BME280;56865;51.618;7.406;2024-03-08T07:38:00;100829.31;;;9.03;100.00
44992;BME280;56865;51.618;7.406;2024-03-08T07:41:08;100809.88;;;9.03;100.00
44992;BME280;56865;51.618;7.406;2024-03-08T07:44:19;100809.50;;;8.94;100.00
44992;BME280;56865;51.618;7.406;2024-03-08T07:53:17;100801.00;;;9.93;100.00
44992;BME280;56865;51.618;7.406;2024-03-08T08:10:36;100789.09;;;10.76;100.00
44992;BME280;56865;51.618;7.406;2024-03-08T08:13:52;100790.13;;;11.13;100.00
44992;BME280;56865;51.618;7.406;2024-03-08T08:19:34;100782.25;;;10.75;100.00
44992;BME280;56865;51.618;7.406;2024-03-08T08:22:35;100777.56;;;10.60;100.00
44992;BME280;56865;51.618;7.406;2024-03-08T08:28:21;100773.84;;;11.08;100.00
44992;BME280;56865;51.618;7.406;2024-03-08T08:33:36;100763.13;;;11.92;100.00
44992;BME280;56865;51.618;7.406;2024-03-08T08:36:29;100767.09;;;11.79;100.00
44992;BME280;56865;51.618;7.406;2024-03-08T08:39:21;100771.31;;;11.78;100.00
44992;BME280;56865;51.618;7.406;2024-03-08T08:42:03;100761.41;;;11.91;100.00
44992;BME280;56865;51.618;7.406;2024-03-08T08:51:48;100747.38;;;12.10;100.00
44992;BME280;56865;51.618;7.406;2024-03-08T08:54:45;100744.66;;;12.83;100.00
44992;BME280;56865;51.618;7.406;2024-03-08T09:00:08;100739.06;;;12.58;100.00
44992;BME280;56865;51.618;7.406;2024-03-08T09:03:16;100730.75;;;13.16;100.00
44992;BME280;56865;51.618;7.406;2024-03-08T09:05:51;100739.97;;;12.60;100.00
44992;BME280;56865;51.618;7.406;2024-03-08T09:09:04;100741.88;;;12.31;100.00
44992;BME280;56865;51.618;7.406;2024-03-08T09:11:53;100727.25;;;13.11;100.00
44992;BME280;56865;51.618;7.406;2024-03-08T09:14:41;100718.84;;;13.18;100.00
44992;BME280;56865;51.618;7.406;2024-03-08T09:17:21;100720.84;;;12.86;100.00
44992;BME280;56865;51.618;7.406;2024-03-08T09:20:19;100725.97;;;12.87;100.00
44992;BME280;56865;51.618;7.406;2024-03-08T09:22:54;100714.97;;;13.39;100.00
44992;BME280;56865;51.618;7.406;2024-03-08T09:25:42;100708.91;;;13.37;100.00
44992;BME280;56865;51.618;7.406;2024-03-08T09:31:25;100704.78;;;12.94;100.00
44992;BME280;56865;51.618;7.406;2024-03-08T09:34:08;100688.75;;;13.03;100.00
44992;BME280;56865;51.618;7.406;2024-03-08T09:45:56;100670.22;;;13.70;100.00
44992;BME280;56865;51.618;7.406;2024-03-08T09:48:57;100660.75;;;14.30;100.00
44992;BME280;56865;51.618;7.406;2024-03-08T09:51:50;100664.72;;;14.05;100.00
44992;BME280;56865;51.618;7.406;2024-03-08T09:54:39;100667.13;;;14.65;100.00
44992;BME280;56865;51.618;7.406;2024-03-08T09:57:15;100649.28;;;14.76;100.00
44992;BME280;56865;51.618;7.406;2024-03-08T10:02:39;100644.25;;;14.85;100.00
44992;BME280;56865;51.618;7.406;2024-03-08T10:05:31;100641.88;;;15.07;100.00
44992;BME280;56865;51.618;7.406;2024-03-08T10:08:04;100640.16;;;15.07;100.00
44992;BME280;56865;51.618;7.406;2024-03-08T10:10:39;100633.41;;;15.17;100.00
44992;BME280;56865;51.618;7.406;2024-03-08T10:13:17;100630.00;;;15.23;100.00
44992;BME280;56865;51.618;7.406;2024-03-08T10:15:52;100623.19;;;15.23;100.00
44992;BME280;56865;51.618;7.406;2024-03-08T10:18:29;100618.94;;;15.30;100.00
44992;BME280;56865;51.618;7.406;2024-03-08T10:21:09;100614.81;;;15.54;100.00
44992;BME280;56865;51.618;7.406;2024-03-08T10:26:54;100605.91;;;15.04;100.00
44992;BME280;56865;51.618;7.406;2024-03-08T10:29:49;100610.59;;;15.64;100.00
44992;BME280;56865;51.618;7.406;2024-03-08T10:32:39;100606.47;;;15.92;100.00
44992;BME280;56865;51.618;7.406;2024-03-08T10:35:34;100601.38;;;16.01;100.00
44992;BME280;56865;51.618;7.406;2024-03-08T10:38:18;100601.50;;;16.54;100.00
44992;BME280;56865;51.618;7.406;2024-03-08T10:41:01;100607.38;;;15.99;100.00
44992;BME280;56865;51.618;7.406;2024-03-08T10:43:50;100605.78;;;16.47;100.00
44992;BME280;56865;51.618;7.406;2024-03-08T10:46:29;100598.91;;;16.37;100.00
44992;BME280;56865;51.618;7.406;2024-03-08T10:49:16;100589.53;;;16.79;100.00
44992;BME280;56865;51.618;7.406;2024-03-08T10:51:56;100587.69;;;16.15;100.00
44992;BME280;56865;51.618;7.406;2024-03-08T10:54:36;100586.06;;;16.45;100.00
44992;BME280;56865;51.618;7.406;2024-03-08T10:57:19;100586.13;;;17.11;100.00
44992;BME280;56865;51.618;7.406;2024-03-08T11:00:12;100581.81;;;16.82;100.00
44992;BME280;56865;51.618;7.406;2024-03-08T11:03:00;100592.06;;;16.45;100.00
44992;BME280;56865;51.618;7.406;2024-03-08T11:05:32;100574.09;;;16.74;100.00
44992;BME280;56865;51.618;7.406;2024-03-08T11:08:21;100574.09;;;16.90;94.61
44992;BME280;56865;51.618;7.406;2024-03-08T11:11:09;100568.03;;;17.39;100.00
44992;BME280;56865;51.618;7.406;2024-03-08T11:14:02;100564.41;;;18.02;100.00
44992;BME280;56865;51.618;7.406;2024-03-08T11:16:38;100562.84;;;17.62;94.88
44992;BME280;56865;51.618;7.406;2024-03-08T11:19:25;100564.59;;;17.40;100.00
44992;BME280;56865;51.618;7.406;2024-03-08T11:22:02;100551.56;;;17.86;98.81
44992;BME280;56865;51.618;7.406;2024-03-08T11:24:42;100542.97;;;17.83;95.14
44992;BME280;56865;51.618;7.406;2024-03-08T11:30:21;100535.13;;;18.09;100.00
44992;BME280;56865;51.618;7.406;2024-03-08T11:32:55;100526.63;;;17.89;100.00
44992;BME280;56865;51.618;7.406;2024-03-08T11:35:32;100518.75;;;18.15;100.00
44992;BME280;56865;51.618;7.406;2024-03-08T11:38:13;100521.16;;;18.41;95.99
44992;BME280;56865;51.618;7.406;2024-03-08T11:40:50;100519.34;;;18.52;99.56
44992;BME280;56865;51.618;7.406;2024-03-08T11:43:37;100503.47;;;17.75;96.98
44992;BME280;56865;51.618;7.406;2024-03-08T11:46:10;100517.31;;;18.89;95.13
44992;BME280;56865;51.618;7.406;2024-03-08T11:48:46;100501.13;;;18.74;97.45
44992;BME280;56865;51.618;7.406;2024-03-08T11:54:11;100487.09;;;19.03;93.64
44992;BME280;56865;51.618;7.406;2024-03-08T11:57:01;100489.31;;;19.34;94.57
44992;BME280;56865;51.618;7.406;2024-03-08T11:59:34;100486.03;;;19.21;90.42
44992;BME280;56865;51.618;7.406;2024-03-08T12:02:07;100465.44;;;19.13;98.43
44992;BME280;56865;51.618;7.406;2024-03-08T12:04:42;100463.56;;;19.26;91.34
44992;BME280;56865;51.618;7.406;2024-03-08T12:07:17;100452.13;;;19.46;91.24
44992;BME280;56865;51.618;7.406;2024-03-08T12:12:56;100447.44;;;19.06;95.31
44992;BME280;56865;51.618;7.406;2024-03-08T12:15:34;100436.31;;;18.99;90.35
44992;BME280;56865;51.618;7.406;2024-03-08T12:18:06;100445.28;;;19.40;86.58
44992;BME280;56865;51.618;7.406;2024-03-08T12:20:41;100440.38;;;19.20;89.32
44992;BME280;56865;51.618;7.406;2024-03-08T12:23:23;100422.09;;;19.37;85.47
44992;BME280;56865;51.618;7.406;2024-03-08T12:25:54;100420.28;;;20.03;82.01
44992;BME280;56865;51.618;7.406;2024-03-08T12:28:31;100426.16;;;20.14;85.55
44992;BME280;56865;51.618;7.406;2024-03-08T12:31:03;100421.72;;;20.21;81.63
44992;BME280;56865;51.618;7.406;2024-03-08T12:33:37;100409.50;;;19.73;84.91
44992;BME280;56865;51.618;7.406;2024-03-08T12:36:23;100407.41;;;20.00;84.98
44992;BME280;56865;51.618;7.406;2024-03-08T12:38:55;100407.56;;;19.89;85.75
44992;BME280;56865;51.618;7.406;2024-03-08T12:41:29;100402.09;;;20.09;84.79
44992;BME280;56865;51.618;7.406;2024-03-08T12:44:02;100393.13;;;20.30;81.48
44992;BME280;56865;51.618;7.406;2024-03-08T12:46:34;100398.53;;;20.17;81.08
44992;BME280;56865;51.618;7.406;2024-03-08T12:49:07;100395.13;;;20.61;83.39
44992;BME280;56865;51.618;7.406;2024-03-08T12:51:40;100391.78;;;20.56;85.83
44992;BME280;56865;51.618;7.406;2024-03-08T12:54:11;100388.22;;;19.56;81.97
44992;BME280;56865;51.618;7.406;2024-03-08T12:56:42;100386.19;;;20.31;85.56
44992;BME280;56865;51.618;7.406;2024-03-08T12:59:17;100380.34;;;19.65;81.51
44992;BME280;56865;51.618;7.406;2024-03-08T13:01:49;100373.34;;;19.70;84.75
44992;BME280;56865;51.618;7.406;2024-03-08T13:06:48;100361.63;;;19.47;84.57
44992;BME280;56865;51.618;7.406;2024-03-08T13:09:20;100358.56;;;19.78;88.84
44992;BME280;56865;51.618;7.406;2024-03-08T13:11:50;100356.78;;;19.23;84.24
44992;BME280;56865;51.618;7.406;2024-03-08T13:14:24;100345.00;;;19.64;83.02
44992;BME280;56865;51.618;7.406;2024-03-08T13:16:54;100351.78;;;20.26;80.71
44992;BME280;56865;51.618;7.406;2024-03-08T13:19:24;100344.25;;;19.56;79.97
44992;BME280;56865;51.618;7.406;2024-03-08T13:21:54;100341.56;;;19.62;82.80
44992;BME280;56865;51.618;7.406;2024-03-08T13:24:24;100341.97;;;19.95;78.91
44992;BME280;56865;51.618;7.406;2024-03-08T13:26:54;100339.50;;;19.86;79.15
44992;BME280;56865;51.618;7.406;2024-03-08T13:29:27;100339.47;;;20.37;78.51
44992;BME280;56865;51.618;7.406;2024-03-08T13:32:00;100341.41;;;20.74;79.29
44992;BME280;56865;51.618;7.406;2024-03-08T13:34:30;100326.47;;;19.92;80.57
44992;BME280;56865;51.618;7.406;2024-03-08T13:37:01;100322.38;;;19.77;86.02
44992;BME280;56865;51.618;7.406;2024-03-08T13:39:32;100322.03;;;20.00;81.28
44992;BME280;56865;51.618;7.406;2024-03-08T13:42:07;100316.72;;;20.08;81.86
44992;BME280;56865;51.618;7.406;2024-03-08T13:44:45;100313.72;;;19.79;82.32
44992;BME280;56865;51.618;7.406;2024-03-08T13:47:15;100305.09;;;19.84;79.53
44992;BME280;56865;51.618;7.406;2024-03-08T13:49:45;100314.78;;;19.68;80.96
44992;BME280;56865;51.618;7.406;2024-03-08T13:52:17;100305.63;;;20.01;77.82
44992;BME280;56865;51.618;7.406;2024-03-08T13:54:47;100307.84;;;20.21;81.07
44992;BME280;56865;51.618;7.406;2024-03-08T13:57:17;100307.84;;;19.71;81.71
44992;BME280;56865;51.618;7.406;2024-03-08T13:59:51;100288.34;;;19.50;79.48
44992;BME280;56865;51.618;7.406;2024-03-08T14:02:21;100296.00;;;20.09;76.67
44992;BME280;56865;51.618;7.406;2024-03-08T14:04:57;100282.38;;;20.00;83.31
44992;BME280;56865;51.618;7.406;2024-03-08T14:07:28;100289.34;;;20.41;74.86
44992;BME280;56865;51.618;7.406;2024-03-08T14:10:00;100274.59;;;19.46;81.17
44992;BME280;56865;51.618;7.406;2024-03-08T14:12:30;100272.94;;;18.80;81.36
44992;BME280;56865;51.618;7.406;2024-03-08T14:15:02;100270.97;;;20.11;78.52
44992;BME280;56865;51.618;7.406;2024-03-08T14:17:33;100267.16;;;19.81;80.30
44992;BME280;56865;51.618;7.406;2024-03-08T14:20:03;100256.25;;;19.62;78.19
44992;BME280;56865;51.618;7.406;2024-03-08T14:22:33;100262.81;;;20.30;77.39
44992;BME280;56865;51.618;7.406;2024-03-08T14:25:03;100253.72;;;19.59;80.99
44992;BME280;56865;51.618;7.406;2024-03-08T14:27:32;100237.47;;;19.52;83.39
44992;BME280;56865;51.618;7.406;2024-03-08T14:30:05;100251.97;;;19.61;77.65
44992;BME280;56865;51.618;7.406;2024-03-08T14:32:37;100238.00;;;19.70;77.73
44992;BME280;56865;51.618;7.406;2024-03-08T14:35:08;100248.31;;;19.73;82.62
44992;BME280;56865;51.618;7.406;2024-03-08T14:37:38;100232.66;;;19.29;84.86
44992;BME280;56865;51.618;7.406;2024-03-08T14:40:10;100228.91;;;18.92;81.42
44992;BME280;56865;51.618;7.406;2024-03-08T14:42:42;100223.22;;;17.94;82.61
44992;BME280;56865;51.618;7.406;2024-03-08T14:45:14;100215.34;;;18.03;84.49
44992;BME280;56865;51.618;7.406;2024-03-08T14:47:46;100214.59;;;17.92;82.77
44992;BME280;56865;51.618;7.406;2024-03-08T14:50:18;100214.56;;;17.95;95.26
44992;BME280;56865;51.618;7.406;2024-03-08T14:52:49;100213.84;;;17.77;88.18
44992;BME280;56865;51.618;7.406;2024-03-08T14:55:19;100203.47;;;17.86;83.40
44992;BME280;56865;51.618;7.406;2024-03-08T14:57:49;100204.56;;;17.61;85.42
44992;BME280;56865;51.618;7.406;2024-03-08T15:03:15;100194.84;;;16.79;86.68
44992;BME280;56865;51.618;7.406;2024-03-08T15:06:07;100206.44;;;17.43;86.39
44992;BME280;56865;51.618;7.406;2024-03-08T15:08:39;100191.34;;;16.97;91.04
44992;BME280;56865;51.618;7.406;2024-03-08T15:11:17;100195.41;;;17.26;84.50
44992;BME280;56865;51.618;7.406;2024-03-08T15:13:52;100188.34;;;17.49;93.04
44992;BME280;56865;51.618;7.406;2024-03-08T15:16:25;100186.28;;;16.78;93.09
44992;BME280;56865;51.618;7.406;2024-03-08T15:18:59;100187.09;;;16.83;90.12
44992;BME280;56865;51.618;7.406;2024-03-08T15:21:37;100181.94;;;16.86;93.66
44992;BME280;56865;51.618;7.406;2024-03-08T15:24:12;100169.44;;;16.11;92.86
44992;BME280;56865;51.618;7.406;2024-03-08T15:26:50;100168.44;;;16.42;95.14
44992;BME280;56865;51.618;7.406;2024-03-08T15:29:27;100165.13;;;16.17;93.23
44992;BME280;56865;51.618;7.406;2024-03-08T15:32:09;100157.28;;;16.47;94.37
44992;BME280;56865;51.618;7.406;2024-03-08T15:35:03;100156.53;;;16.28;94.69
44992;BME280;56865;51.618;7.406;2024-03-08T15:37:47;100138.66;;;15.86;91.87
44992;BME280;56865;51.618;7.406;2024-03-08T15:40:32;100152.38;;;15.92;90.21
44992;BME280;56865;51.618;7.406;2024-03-08T15:43:12;100134.38;;;15.99;100.00
44992;BME280;56865;51.618;7.406;2024-03-08T15:45:47;100129.25;;;15.89;96.70
44992;BME280;56865;51.618;7.406;2024-03-08T15:48:22;100131.84;;;15.68;96.28
44992;BME280;56865;51.618;7.406;2024-03-08T15:51:03;100130.81;;;16.28;96.25
44992;BME280;56865;51.618;7.406;2024-03-08T15:53:42;100129.69;;;16.69;96.96
44992;BME280;56865;51.618;7.406;2024-03-08T15:56:24;100118.69;;;16.45;96.20
44992;BME280;56865;51.618;7.406;2024-03-08T15:58:57;100120.69;;;15.70;97.72
44992;BME280;56865;51.618;7.406;2024-03-08T16:01:35;100119.81;;;15.91;97.86
44992;BME280;56865;51.618;7.406;2024-03-08T16:04:18;100112.13;;;15.76;98.70
44992;BME280;56865;51.618;7.406;2024-03-08T16:06:57;100111.94;;;16.29;100.00
44992;BME280;56865;51.618;7.406;2024-03-08T16:09:33;100106.06;;;15.97;99.01
44992;BME280;56865;51.618;7.406;2024-03-08T16:12:08;100117.09;;;16.27;95.35
44992;BME280;56865;51.618;7.406;2024-03-08T16:14:40;100108.59;;;16.09;97.93
44992;BME280;56865;51.618;7.406;2024-03-08T16:17:25;100106.06;;;15.97;97.64
44992;BME280;56865;51.618;7.406;2024-03-08T16:19:58;100105.25;;;15.81;100.00
44992;BME280;56865;51.618;7.406;2024-03-08T16:22:48;100098.41;;;15.92;98.35
44992;BME280;56865;51.618;7.406;2024-03-08T16:25:26;100103.47;;;16.13;100.00
44992;BME280;56865;51.618;7.406;2024-03-08T16:28:01;100098.38;;;15.96;97.08
44992;BME280;56865;51.618;7.406;2024-03-08T16:30:38;100102.56;;;16.21;100.00
44992;BME280;56865;51.618;7.406;2024-03-08T16:33:17;100098.38;;;15.94;97.60
44992;BME280;56865;51.618;7.406;2024-03-08T16:35:54;100099.31;;;15.59;98.58
44992;BME280;56865;51.618;7.406;2024-03-08T16:38:35;100090.84;;;14.79;97.28
44992;BME280;56865;51.618;7.406;2024-03-08T16:41:32;100084.00;;;14.85;97.89
44992;BME280;56865;51.618;7.406;2024-03-08T16:44:12;100093.34;;;15.48;95.93
44992;BME280;56865;51.618;7.406;2024-03-08T16:46:51;100084.72;;;15.70;100.00
44992;BME280;56865;51.618;7.406;2024-03-08T16:49:23;100091.69;;;15.08;98.53
44992;BME280;56865;51.618;7.406;2024-03-08T16:52:09;100089.97;;;15.32;98.91
44992;BME280;56865;51.618;7.406;2024-03-08T16:54:53;100074.53;;;15.32;98.74
44992;BME280;56865;51.618;7.406;2024-03-08T16:57:33;100077.00;;;15.81;100.00
44992;BME280;56865;51.618;7.406;2024-03-08T17:00:08;100077.13;;;15.25;99.39
44992;BME280;56865;51.618;7.406;2024-03-08T17:02:43;100081.44;;;15.13;98.39
44992;BME280;56865;51.618;7.406;2024-03-08T17:05:17;100076.22;;;15.53;98.58
44992;BME280;56865;51.618;7.406;2024-03-08T17:08:20;100075.44;;;14.75;100.00
44992;BME280;56865;51.618;7.406;2024-03-08T17:11:22;100074.59;;;14.74;100.00
44992;BME280;56865;51.618;7.406;2024-03-08T17:14:03;100081.38;;;14.49;99.02
44992;BME280;56865;51.618;7.406;2024-03-08T17:16:52;100074.59;;;15.04;100.00
44992;BME280;56865;51.618;7.406;2024-03-08T17:22:40;100075.44;;;15.15;99.62
44992;BME280;56865;51.618;7.406;2024-03-08T17:25:30;100082.25;;;15.33;98.05
44992;BME280;56865;51.618;7.406;2024-03-08T17:28:17;100073.75;;;14.75;100.00
44992;BME280;56865;51.618;7.406;2024-03-08T17:30:54;100079.72;;;14.85;98.15
44992;BME280;56865;51.618;7.406;2024-03-08T17:33:30;100070.28;;;15.15;99.36
44992;BME280;56865;51.618;7.406;2024-03-08T17:36:12;100077.16;;;15.07;100.00
44992;BME280;56865;51.618;7.406;2024-03-08T17:39:04;100086.56;;;15.02;100.00
44992;BME280;56865;51.618;7.406;2024-03-08T17:44:46;100078.03;;;14.72;100.00
44992;BME280;56865;51.618;7.406;2024-03-08T17:47:37;100094.22;;;14.57;100.00
44992;BME280;56865;51.618;7.406;2024-03-08T17:56:08;100093.31;;;14.41;100.00
44992;BME280;56865;51.618;7.406;2024-03-08T18:47:54;100071.78;;;13.80;100.00
44992;BME280;56865;51.618;7.406;2024-03-08T18:50:40;100070.06;;;13.77;100.00
44992;BME280;56865;51.618;7.406;2024-03-08T18:53:38;100070.06;;;13.82;100.00
44992;BME280;56865;51.618;7.406;2024-03-08T18:56:10;100064.16;;;14.05;100.00
44992;BME280;56865;51.618;7.406;2024-03-08T18:58:50;100058.16;;;13.90;100.00
44992;BME280;56865;51.618;7.406;2024-03-08T19:02:09;100052.84;;;13.52;100.00
44992;BME280;56865;51.618;7.406;2024-03-08T19:04:57;100051.94;;;13.42;100.00
44992;BME280;56865;51.618;7.406;2024-03-08T19:07:59;100048.66;;;13.68;100.00
44992;BME280;56865;51.618;7.406;2024-03-08T19:10:53;100054.63;;;13.68;100.00
44992;BME280;56865;51.618;7.406;2024-03-08T19:13:38;100042.78;;;13.90;100.00
44992;BME280;56865;51.618;7.406;2024-03-08T19:16:17;100042.66;;;13.62;100.00
44992;BME280;56865;51.618;7.406;2024-03-08T19:19:10;100025.56;;;13.55;100.00
44992;BME280;56865;51.618;7.406;2024-03-08T19:21:53;100035.75;;;13.49;100.00
44992;BME280;56865;51.618;7.406;2024-03-08T19:24:42;100034.84;;;13.38;100.00
44992;BME280;56865;51.618;7.406;2024-03-08T19:27:45;100033.34;;;13.83;100.00
44992;BME280;56865;51.618;7.406;2024-03-08T19:30:37;100035.09;;;14.00;100.00
44992;BME280;56865;51.618;7.406;2024-03-08T19:33:37;100031.34;;;13.26;100.00
44992;BME280;56865;51.618;7.406;2024-03-08T19:36:34;100026.25;;;13.32;100.00
44992;BME280;56865;51.618;7.406;2024-03-08T19:39:23;100014.53;;;13.69;100.00
44992;BME280;56865;51.618;7.406;2024-03-08T19:54:12;100004.06;;;13.28;100.00
44992;BME280;56865;51.618;7.406;2024-03-08T20:03:05;100001.53;;;13.35;100.00
44992;BME280;56865;51.618;7.406;2024-03-08T20:06:18;100001.63;;;13.52;100.00
44992;BME280;56865;51.618;7.406;2024-03-08T20:11:53;99992.28;;;13.54;100.00
44992;BME280;56865;51.618;7.406;2024-03-08T20:15:02;99989.56;;;13.29;100.00
44992;BME280;56865;51.618;7.406;2024-03-08T20:38:45;99964.47;;;12.72;100.00
44992;BME280;56865;51.618;7.406;2024-03-08T20:41:14;99968.84;;;12.87;100.00
44992;BME280;56865;51.618;7.406;2024-03-08T20:43:44;99966.16;;;12.65;100.00
44992;BME280;56865;51.618;7.406;2024-03-08T20:46:13;99959.47;;;12.89;100.00
44992;BME280;56865;51.618;7.406;2024-03-08T20:48:44;99962.91;;;12.93;100.00
44992;BME280;56865;51.618;7.406;2024-03-08T20:51:16;99956.78;;;12.69;100.00
44992;BME280;56865;51.618;7.406;2024-03-08T20:53:49;99951.69;;;12.72;100.00
44992;BME280;56865;51.618;7.406;2024-03-08T20:56:20;99950.22;;;13.13;100.00
44992;BME280;56865;51.618;7.406;2024-03-08T20:58:51;99953.47;;;12.82;100.00
44992;BME280;56865;51.618;7.406;2024-03-08T21:01:21;99950.88;;;12.78;100.00
44992;BME280;56865;51.618;7.406;2024-03-08T21:03:57;99947.28;;;12.48;100.00
44992;BME280;56865;51.618;7.406;2024-03-08T21:06:44;99948.16;;;12.55;100.00
44992;BME280;56865;51.618;7.406;2024-03-08T21:09:37;99940.63;;;12.78;100.00
44992;BME280;56865;51.618;7.406;2024-03-08T21:12:49;99938.03;;;12.70;100.00
44992;BME280;56865;51.618;7.406;2024-03-08T21:16:09;99933.97;;;12.97;100.00
44992;BME280;56865;51.618;7.406;2024-03-08T21:18:57;99931.28;;;12.81;100.00
44992;BME280;56865;51.618;7.406;2024-03-08T21:25:00;99920.25;;;12.89;100.00
44992;BME280;56865;51.618;7.406;2024-03-08T21:28:04;99924.53;;;12.93;100.00
44992;BME280;56865;51.618;7.406;2024-03-08T21:31:19;99923.81;;;13.17;100.00
44992;BME280;56865;51.618;7.406;2024-03-08T21:34:37;99920.28;;;12.92;100.00
44992;BME280;56865;51.618;7.406;2024-03-08T21:40:14;99927.94;;;12.89;100.00
44992;BME280;56865;51.618;7.406;2024-03-08T21:52:01;99917.47;;;12.51;100.00
44992;BME280;56865;51.618;7.406;2024-03-08T21:57:37;99928.53;;;12.52;100.00
44992;BME280;56865;51.618;7.406;2024-03-08T22:00:41;99922.78;;;12.79;100.00
44992;BME280;56865;51.618;7.406;2024-03-08T22:06:27;99931.19;;;12.69;100.00
44992;BME280;56865;51.618;7.406;2024-03-08T22:09:33;99927.78;;;12.65;100.00
44992;BME280;56865;51.618;7.406;2024-03-08T22:21:12;99929.28;;;12.39;100.00
44992;BME280;56865;51.618;7.406;2024-03-08T22:23:59;99932.88;;;12.61;100.00
44992;BME280;56865;51.618;7.406;2024-03-08T22:26:45;99924.91;;;12.22;100.00
44992;BME280;56865;51.618;7.406;2024-03-08T22:32:12;99919.94;;;12.41;100.00
44992;BME280;56865;51.618;7.406;2024-03-08T22:47:10;99925.06;;;12.44;100.00
44992;BME280;56865;51.618;7.406;2024-03-08T22:50:14;99922.34;;;12.24;100.00
44992;BME280;56865;51.618;7.406;2024-03-08T23:25:22;99901.13;;;12.28;100.00
44992;BME280;56865;51.618;7.406;2024-03-08T23:28:20;99898.50;;;12.22;100.00
